New Centerville, Idaho
Current Conditions -  °F | °C
As of 5:53 PM on Saturday 22 Nov 2014 (Local Time) from KBOI Reporting Station
Light Rain Light Rain  
Wind Chill: 38°   Ceiling: 4300
Heat Index: 41°   Visibility: 10mi
Dew Point: 36°   Wind: 5mph
Humidity: 82%   Direction: 220°SW
Pressure: 29.86"   Gusts: NA
Location:  43.8008°N, 115.834°W
Report Text: KBOI 230053Z 22004KT 10SM -RA FEW015 BKN043 OVC070 05/02 A2986 RMK AO2 RAB30 SLP117 P0000 T00500022
Loading
Personal Weather Stations






























Interactive Weather Map New forecast layout! Learn more

10-Day Weather Forecast

Advertisements
Track Severe Weather on mobile